Time;durP1;ratioP1;P1;durP2;ratioP2;P2;SDS_P1;SDS_P2;PMS_P1;PMS_P2;Temp;Humidity;BMP_temperature;BMP_pressure;BME280_temperature;BME280_humidity;BME280_pressure;Samples;Min_cycle;Max_cycle;Signal;HPM_P1;HPM_P2
2022/10/24 00:00:46;;;;;;;27.05;10.18;;;;;;;;;;4970940;28;20510;-64
2022/10/24 00:03:12;;;;;;;19.92;9.85;;;;;;;;;;4971274;28;20384;-64
2022/10/24 00:05:42;;;;;;;17.65;9.25;;;;;;;;;;4970691;28;20506;-64
2022/10/24 00:08:08;;;;;;;18.00;9.88;;;;;;;;;;4971313;28;20046;-64
2022/10/24 00:10:35;;;;;;;16.05;9.02;;;;;;;;;;4970631;28;20053;-64
2022/10/24 00:13:00;;;;;;;18.65;9.57;;;;;;;;;;4971966;28;20051;-64
2022/10/24 00:15:26;;;;;;;19.13;10.13;;;;;;;;;;4971137;28;20420;-64
2022/10/24 00:17:51;;;;;;;18.95;9.45;;;;;;;;;;4952753;28;20456;-64
2022/10/24 00:20:16;;;;;;;29.80;10.18;;;;;;;;;;4972645;28;20030;-64
2022/10/24 00:22:41;;;;;;;20.10;10.45;;;;;;;;;;4970727;28;20348;-64
2022/10/24 00:25:08;;;;;;;18.77;9.70;;;;;;;;;;4971228;28;20310;-64
2022/10/24 00:27:35;;;;;;;18.45;10.13;;;;;;;;;;4970373;28;20044;-64
2022/10/24 00:30:00;;;;;;;20.05;9.13;;;;;;;;;;4969959;28;20029;-64
2022/10/24 00:32:26;;;;;;;15.10;8.65;;;;;;;;;;4970492;28;20432;-64
2022/10/24 00:34:51;;;;;;;16.42;8.35;;;;;;;;;;4970869;28;20029;-64
2022/10/24 00:37:16;;;;;;;16.35;8.95;;;;;;;;;;4969992;28;20029;-64
2022/10/24 00:39:42;;;;;;;16.73;8.52;;;;;;;;;;4970157;28;20519;-64
2022/10/24 00:42:07;;;;;;;23.77;11.07;;;;;;;;;;4971048;28;20179;-64
2022/10/24 00:44:37;;;;;;;18.90;8.70;;;;;;;;;;4968609;28;20029;-64
2022/10/24 00:47:37;;;;;;;19.15;8.32;;;;;;;;;;4969979;28;20041;-64
2022/10/24 00:50:10;;;;;;;20.95;10.75;;;;;;;;;;4893589;28;20426;-64
2022/10/24 00:52:40;;;;;;;29.30;13.45;;;;;;;;;;4942450;28;20452;-64
2022/10/24 00:55:06;;;;;;;26.30;13.35;;;;;;;;;;4969832;28;20493;-64
2022/10/24 00:57:49;;;;;;;15.73;8.40;;;;;;;;;;4969643;28;20025;-64
2022/10/24 01:00:22;;;;;;;15.65;8.50;;;;;;;;;;4969580;28;20512;-64
2022/10/24 01:02:47;;;;;;;24.58;12.57;;;;;;;;;;4957589;28;20449;-64
2022/10/24 01:05:13;;;;;;;26.85;13.05;;;;;;;;;;4969681;28;20386;-64
2022/10/24 01:07:50;;;;;;;23.38;11.38;;;;;;;;;;4969716;28;20498;-64
2022/10/24 01:10:36;;;;;;;16.45;8.65;;;;;;;;;;4970167;28;20440;-64
2022/10/24 01:13:10;;;;;;;15.50;8.13;;;;;;;;;;4968905;28;20157;-64
2022/10/24 01:15:53;;;;;;;13.80;7.25;;;;;;;;;;4969457;28;20052;-64
2022/10/24 01:18:20;;;;;;;15.48;7.53;;;;;;;;;;4969722;28;20420;-64
2022/10/24 01:21:07;;;;;;;16.95;8.20;;;;;;;;;;4951392;28;20484;-64
2022/10/24 01:23:51;;;;;;;13.20;7.03;;;;;;;;;;4969172;28;20517;-64
2022/10/24 01:26:38;;;;;;;16.00;7.97;;;;;;;;;;4952248;28;20444;-64
2022/10/24 01:29:15;;;;;;;13.57;7.30;;;;;;;;;;4970876;28;20396;-64
2022/10/24 01:31:49;;;;;;;13.98;7.70;;;;;;;;;;4968813;28;20067;-64
2022/10/24 01:34:25;;;;;;;12.35;7.03;;;;;;;;;;4969028;28;20349;-64
2022/10/24 01:36:57;;;;;;;13.25;7.22;;;;;;;;;;4951641;28;20325;-64
2022/10/24 01:39:24;;;;;;;14.27;6.97;;;;;;;;;;4951085;28;20500;-64
2022/10/24 01:41:50;;;;;;;11.93;6.68;;;;;;;;;;4951196;28;20033;-64
2022/10/24 01:44:21;;;;;;;13.57;6.78;;;;;;;;;;4970934;28;20099;-64
2022/10/24 01:46:54;;;;;;;10.80;6.55;;;;;;;;;;4951452;28;20520;-64
2022/10/24 01:49:20;;;;;;;11.20;7.28;;;;;;;;;;4969328;28;20421;-64
2022/10/24 01:51:50;;;;;;;10.75;6.78;;;;;;;;;;4950978;28;20380;-65
2022/10/24 01:54:15;;;;;;;16.83;7.30;;;;;;;;;;4950904;28;20459;-65
2022/10/24 01:56:41;;;;;;;18.15;7.63;;;;;;;;;;4951150;28;20167;-64
2022/10/24 01:59:24;;;;;;;16.20;8.32;;;;;;;;;;4968757;28;20459;-64
2022/10/24 02:01:51;;;;;;;11.40;6.60;;;;;;;;;;4968966;28;20490;-64
2022/10/24 02:04:16;;;;;;;11.43;6.35;;;;;;;;;;4950793;28;20286;-65
2022/10/24 02:06:42;;;;;;;12.45;7.22;;;;;;;;;;4950951;28;20059;-64
2022/10/24 02:09:15;;;;;;;13.10;7.47;;;;;;;;;;4951389;28;20561;-64
2022/10/24 02:11:41;;;;;;;13.93;7.47;;;;;;;;;;4950615;28;20350;-64
2022/10/24 02:14:15;;;;;;;10.45;6.05;;;;;;;;;;4950720;28;20329;-64
2022/10/24 02:16:42;;;;;;;10.00;6.50;;;;;;;;;;4951441;28;20432;-64
2022/10/24 02:19:08;;;;;;;13.75;7.40;;;;;;;;;;4950874;28;20030;-64
2022/10/24 02:21:37;;;;;;;12.57;6.60;;;;;;;;;;4950535;28;20525;-64
2022/10/24 02:24:08;;;;;;;11.05;5.90;;;;;;;;;;4951022;28;20520;-64
2022/10/24 02:26:37;;;;;;;10.63;6.65;;;;;;;;;;4969358;28;20111;-64
2022/10/24 02:29:07;;;;;;;14.52;6.28;;;;;;;;;;4950490;28;20444;-64
2022/10/24 02:31:35;;;;;;;17.55;8.30;;;;;;;;;;4949969;28;20136;-64
2022/10/24 02:34:04;;;;;;;11.38;6.57;;;;;;;;;;4950505;28;20444;-64
2022/10/24 02:36:31;;;;;;;12.90;6.75;;;;;;;;;;4950330;28;20128;-64
2022/10/24 02:38:57;;;;;;;9.98;6.07;;;;;;;;;;4966965;28;20523;-64
2022/10/24 02:41:29;;;;;;;9.98;6.07;;;;;;;;;;4968208;28;20436;-64
2022/10/24 02:43:55;;;;;;;12.18;5.90;;;;;;;;;;4950227;28;20392;-64
2022/10/24 02:46:21;;;;;;;9.50;5.63;;;;;;;;;;4968981;28;20344;-64
2022/10/24 02:48:49;;;;;;;13.35;6.40;;;;;;;;;;4966375;28;20357;-64
2022/10/24 02:51:17;;;;;;;12.82;6.65;;;;;;;;;;4966455;28;20369;-64
2022/10/24 02:53:42;;;;;;;13.90;7.47;;;;;;;;;;4950255;28;20108;-64
2022/10/24 02:56:08;;;;;;;22.08;7.30;;;;;;;;;;4968042;28;20102;-64
2022/10/24 02:58:33;;;;;;;30.42;12.05;;;;;;;;;;4950549;28;20445;-64
2022/10/24 03:00:58;;;;;;;18.30;7.85;;;;;;;;;;4969398;28;20499;-64
2022/10/24 03:03:24;;;;;;;21.75;8.82;;;;;;;;;;4967929;28;20504;-64
2022/10/24 03:05:49;;;;;;;18.00;7.35;;;;;;;;;;4968369;28;20351;-64
2022/10/24 03:08:15;;;;;;;18.52;6.85;;;;;;;;;;4967932;28;20510;-64
2022/10/24 03:10:40;;;;;;;13.50;6.53;;;;;;;;;;4967626;28;20343;-64
2022/10/24 03:13:05;;;;;;;10.75;5.90;;;;;;;;;;4967877;28;20440;-64
2022/10/24 03:15:31;;;;;;;15.90;7.47;;;;;;;;;;4967702;28;20460;-64
2022/10/24 03:17:56;;;;;;;59.38;19.23;;;;;;;;;;4967894;28;20542;-64
2022/10/24 03:20:23;;;;;;;28.15;10.90;;;;;;;;;;4968028;28;20608;-64
2022/10/24 03:22:49;;;;;;;11.63;6.25;;;;;;;;;;4967968;28;20441;-64
2022/10/24 03:25:14;;;;;;;11.00;5.15;;;;;;;;;;4967650;28;20497;-64
2022/10/24 03:27:40;;;;;;;10.88;5.68;;;;;;;;;;4967685;28;20460;-64
2022/10/24 03:30:06;;;;;;;13.68;6.65;;;;;;;;;;4968949;28;20384;-64
2022/10/24 03:32:32;;;;;;;11.98;6.28;;;;;;;;;;4967349;28;20405;-64
2022/10/24 03:34:58;;;;;;;22.30;7.78;;;;;;;;;;4967696;28;20433;-64
2022/10/24 03:37:23;;;;;;;13.10;6.43;;;;;;;;;;4967409;28;20502;-65
2022/10/24 03:39:49;;;;;;;13.90;6.30;;;;;;;;;;4967696;28;20437;-64
2022/10/24 03:42:14;;;;;;;11.20;6.00;;;;;;;;;;4967598;28;20348;-64
2022/10/24 03:44:40;;;;;;;11.13;6.03;;;;;;;;;;4968091;28;20021;-64
2022/10/24 03:47:06;;;;;;;13.57;5.70;;;;;;;;;;4967248;28;20514;-64
2022/10/24 03:49:31;;;;;;;10.27;5.60;;;;;;;;;;4967661;28;20471;-64
2022/10/24 03:51:57;;;;;;;15.00;5.72;;;;;;;;;;4970920;28;20451;-64
2022/10/24 03:54:22;;;;;;;15.43;7.07;;;;;;;;;;4972121;28;20499;-64
2022/10/24 03:56:48;;;;;;;16.80;6.22;;;;;;;;;;4971041;28;20120;-64
2022/10/24 03:59:13;;;;;;;16.45;7.28;;;;;;;;;;4971311;28;20384;-64
2022/10/24 04:01:39;;;;;;;33.25;11.05;;;;;;;;;;4970667;28;20445;-64
2022/10/24 04:04:04;;;;;;;18.85;7.97;;;;;;;;;;4970704;28;20364;-64
2022/10/24 04:06:30;;;;;;;21.80;7.43;;;;;;;;;;4970873;28;20344;-64
2022/10/24 04:08:56;;;;;;;17.92;7.95;;;;;;;;;;4972732;28;20348;-64
2022/10/24 04:11:22;;;;;;;60.65;18.48;;;;;;;;;;4953171;28;20464;-64
2022/10/24 04:13:47;;;;;;;57.72;15.77;;;;;;;;;;4970659;28;20545;-64
2022/10/24 04:16:12;;;;;;;15.70;7.82;;;;;;;;;;4971984;28;20519;-64
2022/10/24 04:18:38;;;;;;;16.60;7.80;;;;;;;;;;4970805;28;20436;-64
2022/10/24 04:21:03;;;;;;;14.80;6.63;;;;;;;;;;4970566;28;20384;-64
2022/10/24 04:23:33;;;;;;;16.20;7.18;;;;;;;;;;4970415;28;20448;-64
2022/10/24 04:25:58;;;;;;;19.67;7.78;;;;;;;;;;4970415;28;20467;-64
2022/10/24 04:28:24;;;;;;;14.40;6.13;;;;;;;;;;4970294;28;20345;-66
2022/10/24 04:30:53;;;;;;;12.75;5.90;;;;;;;;;;4971070;28;20487;-64
2022/10/24 04:33:19;;;;;;;12.13;5.25;;;;;;;;;;4971000;28;20326;-64
2022/10/24 04:35:48;;;;;;;11.60;5.72;;;;;;;;;;4970264;28;20345;-64
2022/10/24 04:38:13;;;;;;;8.45;5.32;;;;;;;;;;4952298;28;20388;-64
2022/10/24 04:40:38;;;;;;;10.18;5.38;;;;;;;;;;4970144;28;20368;-64
2022/10/24 04:43:04;;;;;;;9.02;4.95;;;;;;;;;;4970021;28;20483;-64
2022/10/24 04:45:29;;;;;;;13.50;5.63;;;;;;;;;;4970216;28;20415;-64
2022/10/24 04:47:54;;;;;;;9.32;4.72;;;;;;;;;;4971664;28;20332;-64
2022/10/24 04:50:20;;;;;;;11.75;5.78;;;;;;;;;;4969937;28;20317;-64
2022/10/24 04:52:45;;;;;;;12.40;5.97;;;;;;;;;;4970693;28;20405;-64
2022/10/24 04:55:10;;;;;;;11.25;5.72;;;;;;;;;;4969900;28;20432;-64
2022/10/24 04:57:36;;;;;;;14.18;6.97;;;;;;;;;;4969822;28;20098;-64
2022/10/24 05:00:02;;;;;;;16.38;6.20;;;;;;;;;;4969849;28;20029;-64
2022/10/24 05:02:27;;;;;;;20.95;6.82;;;;;;;;;;4969360;28;20408;-64
2022/10/24 05:04:52;;;;;;;12.55;5.28;;;;;;;;;;4970179;28;20399;-64
2022/10/24 05:07:20;;;;;;;13.23;6.05;;;;;;;;;;4969618;28;20339;-64
2022/10/24 05:09:45;;;;;;;12.50;5.70;;;;;;;;;;4969767;28;20444;-64
2022/10/24 05:12:12;;;;;;;11.98;5.75;;;;;;;;;;4969401;28;20113;-64
2022/10/24 05:14:37;;;;;;;13.90;5.35;;;;;;;;;;4970267;28;20386;-64
2022/10/24 05:17:02;;;;;;;12.82;5.75;;;;;;;;;;4969474;28;20321;-64
2022/10/24 05:19:28;;;;;;;15.38;6.97;;;;;;;;;;4969312;28;20394;-64
2022/10/24 05:21:53;;;;;;;9.43;5.07;;;;;;;;;;4969685;28;20429;-64
2022/10/24 05:24:18;;;;;;;9.63;5.68;;;;;;;;;;4971118;28;20321;-64
2022/10/24 05:26:44;;;;;;;11.13;5.88;;;;;;;;;;4969317;28;20441;-64
2022/10/24 05:29:09;;;;;;;10.90;5.55;;;;;;;;;;4969253;28;20475;-64
2022/10/24 05:31:34;;;;;;;14.65;6.50;;;;;;;;;;4969321;28;20341;-64
2022/10/24 05:34:00;;;;;;;14.25;6.57;;;;;;;;;;4969108;28;20318;-64
2022/10/24 05:36:25;;;;;;;27.98;11.25;;;;;;;;;;4969191;28;20356;-64
2022/10/24 05:38:50;;;;;;;30.23;11.55;;;;;;;;;;4969000;28;20480;-64
2022/10/24 05:41:16;;;;;;;27.92;11.20;;;;;;;;;;4968897;28;20535;-64
2022/10/24 05:43:41;;;;;;;28.70;10.75;;;;;;;;;;4968995;28;20029;-64
2022/10/24 05:46:06;;;;;;;21.67;8.52;;;;;;;;;;4969304;28;20029;-64
2022/10/24 05:48:32;;;;;;;25.42;7.95;;;;;;;;;;4968964;28;20052;-64
2022/10/24 05:50:58;;;;;;;20.95;7.70;;;;;;;;;;4969037;28;20048;-64
2022/10/24 05:53:24;;;;;;;21.15;7.53;;;;;;;;;;4968812;28;20348;-64
2022/10/24 05:55:50;;;;;;;55.05;17.60;;;;;;;;;;4969597;28;20037;-65
2022/10/24 05:58:19;;;;;;;47.72;12.82;;;;;;;;;;4968919;28;20452;-64
2022/10/24 06:00:46;;;;;;;24.20;10.48;;;;;;;;;;4968502;28;20380;-64
2022/10/24 06:03:11;;;;;;;23.90;10.07;;;;;;;;;;4969158;28;20388;-64
2022/10/24 06:05:36;;;;;;;20.98;8.30;;;;;;;;;;4968559;28;20124;-64
2022/10/24 06:08:02;;;;;;;17.55;7.95;;;;;;;;;;4968458;28;20441;-65
2022/10/24 06:10:27;;;;;;;17.38;8.40;;;;;;;;;;4968598;28;20506;-64
2022/10/24 06:12:52;;;;;;;15.27;7.90;;;;;;;;;;4970047;28;20366;-64
2022/10/24 06:15:18;;;;;;;20.85;7.82;;;;;;;;;;4969693;28;20427;-64
2022/10/24 06:17:43;;;;;;;17.40;8.65;;;;;;;;;;4968363;28;20436;-64
2022/10/24 06:20:09;;;;;;;17.98;7.97;;;;;;;;;;4969003;28;20444;-64
2022/10/24 06:22:35;;;;;;;16.02;8.00;;;;;;;;;;4968251;28;20407;-64
2022/10/24 06:25:00;;;;;;;21.55;7.57;;;;;;;;;;4968337;28;20444;-64
2022/10/24 06:27:26;;;;;;;16.33;7.47;;;;;;;;;;4969757;28;20413;-64
2022/10/24 06:29:51;;;;;;;15.43;7.82;;;;;;;;;;4967857;28;20527;-64
2022/10/24 06:32:19;;;;;;;14.95;8.35;;;;;;;;;;4967437;28;20045;-64
2022/10/24 06:34:44;;;;;;;11.80;6.72;;;;;;;;;;4967817;28;20042;-64
2022/10/24 06:37:10;;;;;;;12.13;7.28;;;;;;;;;;4967978;28;20454;-64
2022/10/24 06:39:35;;;;;;;18.40;8.32;;;;;;;;;;4967855;28;20450;-65
2022/10/24 06:42:00;;;;;;;18.38;7.80;;;;;;;;;;4967816;28;20022;-64
2022/10/24 06:44:26;;;;;;;13.80;7.22;;;;;;;;;;4967733;28;20344;-64
2022/10/24 06:46:51;;;;;;;15.20;7.88;;;;;;;;;;4968745;28;20045;-64
2022/10/24 06:49:17;;;;;;;12.63;7.70;;;;;;;;;;4968727;28;20440;-64
2022/10/24 06:51:42;;;;;;;21.67;9.23;;;;;;;;;;4967853;28;20423;-64
2022/10/24 06:54:07;;;;;;;21.55;9.52;;;;;;;;;;4968144;28;20367;-64
2022/10/24 06:56:33;;;;;;;23.23;12.55;;;;;;;;;;4967712;28;20344;-64
2022/10/24 06:58:58;;;;;;;19.40;8.50;;;;;;;;;;4967534;28;20030;-64
2022/10/24 07:01:25;;;;;;;33.15;15.73;;;;;;;;;;4970046;28;20336;-64
2022/10/24 07:03:50;;;;;;;32.55;14.65;;;;;;;;;;4967454;28;20033;-64
2022/10/24 07:06:17;;;;;;;28.17;12.40;;;;;;;;;;4968470;28;20021;-64
2022/10/24 07:08:43;;;;;;;18.63;8.95;;;;;;;;;;4969098;28;20344;-64
2022/10/24 07:11:08;;;;;;;15.18;6.85;;;;;;;;;;4967990;28;20355;-64
2022/10/24 07:13:34;;;;;;;16.85;10.40;;;;;;;;;;4968056;28;20498;-64
2022/10/24 07:15:59;;;;;;;15.57;9.38;;;;;;;;;;4967604;28;20392;-64
2022/10/24 07:18:24;;;;;;;15.80;8.90;;;;;;;;;;4967972;28;20357;-64
2022/10/24 07:20:50;;;;;;;16.77;9.57;;;;;;;;;;4968994;28;20415;-64
2022/10/24 07:23:15;;;;;;;14.57;8.13;;;;;;;;;;4950734;28;20029;-64
2022/10/24 07:25:41;;;;;;;15.75;9.25;;;;;;;;;;4970721;28;20536;-64
2022/10/24 07:28:07;;;;;;;17.42;9.77;;;;;;;;;;4971169;28;20022;-64
2022/10/24 07:30:32;;;;;;;14.90;7.90;;;;;;;;;;4971095;28;20528;-64
2022/10/24 07:32:58;;;;;;;15.00;8.63;;;;;;;;;;4970956;28;20490;-64
2022/10/24 07:35:23;;;;;;;14.90;9.43;;;;;;;;;;4972637;28;20452;-64
2022/10/24 07:37:49;;;;;;;15.73;8.30;;;;;;;;;;4970980;28;20465;-64
2022/10/24 07:40:15;;;;;;;18.05;9.32;;;;;;;;;;4971105;28;20419;-64
2022/10/24 07:42:40;;;;;;;17.00;7.75;;;;;;;;;;4971567;28;20450;-64
2022/10/24 07:45:06;;;;;;;15.40;8.00;;;;;;;;;;4971027;28;20471;-64
2022/10/24 07:47:32;;;;;;;13.07;7.20;;;;;;;;;;4971789;28;20357;-64
2022/10/24 07:49:57;;;;;;;13.25;7.25;;;;;;;;;;4970773;28;20352;-64
2022/10/24 07:52:22;;;;;;;15.48;8.68;;;;;;;;;;4971092;28;20436;-64
2022/10/24 07:54:48;;;;;;;13.88;7.93;;;;;;;;;;4971933;28;20471;-64
2022/10/24 07:57:13;;;;;;;13.18;6.93;;;;;;;;;;4970658;28;20524;-64
2022/10/24 07:59:38;;;;;;;17.48;7.70;;;;;;;;;;4970879;28;20420;-64
2022/10/24 08:02:04;;;;;;;11.95;6.72;;;;;;;;;;4971089;28;20455;-64
2022/10/24 08:04:29;;;;;;;18.58;7.53;;;;;;;;;;4970542;28;20437;-64
2022/10/24 08:06:55;;;;;;;19.50;6.53;;;;;;;;;;4971013;28;20475;-64
2022/10/24 08:09:20;;;;;;;16.27;7.05;;;;;;;;;;4952403;28;20340;-64
2022/10/24 08:11:46;;;;;;;13.13;6.72;;;;;;;;;;4970383;28;20353;-64
2022/10/24 08:14:11;;;;;;;13.82;7.03;;;;;;;;;;4970827;28;20463;-64
2022/10/24 08:16:37;;;;;;;11.75;5.85;;;;;;;;;;4970095;28;20474;-64
2022/10/24 08:19:02;;;;;;;10.23;5.95;;;;;;;;;;4971878;28;20018;-64
2022/10/24 08:21:30;;;;;;;13.05;5.82;;;;;;;;;;4971632;28;20428;-64
2022/10/24 08:23:55;;;;;;;10.57;4.75;;;;;;;;;;4970316;28;20057;-64
2022/10/24 08:26:22;;;;;;;9.45;5.78;;;;;;;;;;4970168;28;20133;-64
2022/10/24 08:28:48;;;;;;;12.35;5.18;;;;;;;;;;4971135;28;20168;-64
2022/10/24 08:31:16;;;;;;;7.18;4.30;;;;;;;;;;4969978;28;20472;-64
2022/10/24 08:33:42;;;;;;;8.02;5.07;;;;;;;;;;4970536;28;20515;-64
2022/10/24 08:36:14;;;;;;;8.98;4.68;;;;;;;;;;4969268;28;20483;-64
2022/10/24 08:38:39;;;;;;;10.85;4.95;;;;;;;;;;4970002;28;20472;-64
2022/10/24 08:41:05;;;;;;;13.60;5.00;;;;;;;;;;4969844;28;20463;-64
2022/10/24 08:43:30;;;;;;;9.35;4.88;;;;;;;;;;4969736;28;20486;-64
2022/10/24 08:46:04;;;;;;;9.93;4.60;;;;;;;;;;4970359;28;20585;-64
2022/10/24 08:48:43;;;;;;;7.63;4.75;;;;;;;;;;4970551;28;20041;-64
2022/10/24 08:51:39;;;;;;;8.57;4.37;;;;;;;;;;4952199;28;20101;-65
2022/10/24 08:54:09;;;;;;;8.57;4.40;;;;;;;;;;4963334;28;20634;-64
2022/10/24 08:56:35;;;;;;;7.88;3.97;;;;;;;;;;4951703;28;20459;-64
2022/10/24 08:59:01;;;;;;;8.27;4.18;;;;;;;;;;4971009;28;20318;-64
2022/10/24 09:01:41;;;;;;;8.25;4.43;;;;;;;;;;4969443;28;20420;-64
2022/10/24 09:04:09;;;;;;;8.15;4.38;;;;;;;;;;4969490;28;20057;-64
2022/10/24 09:06:34;;;;;;;11.82;4.15;;;;;;;;;;4969693;28;20391;-64
2022/10/24 09:09:04;;;;;;;6.40;3.55;;;;;;;;;;4951764;28;20430;-64
2022/10/24 09:11:48;;;;;;;9.75;4.93;;;;;;;;;;4951237;28;20395;-64
2022/10/24 09:14:21;;;;;;;7.40;4.38;;;;;;;;;;4969445;28;20491;-64
2022/10/24 09:16:51;;;;;;;7.22;3.72;;;;;;;;;;4969025;28;20383;-64
2022/10/24 09:19:23;;;;;;;8.68;3.85;;;;;;;;;;4951532;28;20421;-64
2022/10/24 09:21:50;;;;;;;10.85;4.35;;;;;;;;;;4968946;28;20388;-65
2022/10/24 09:24:25;;;;;;;8.15;4.22;;;;;;;;;;4927190;28;20490;-64
2022/10/24 09:26:51;;;;;;;9.40;4.10;;;;;;;;;;4969089;28;20560;-64
2022/10/24 09:29:16;;;;;;;7.55;3.78;;;;;;;;;;4970591;28;20363;-64
2022/10/24 09:31:42;;;;;;;7.03;3.55;;;;;;;;;;4968685;28;20072;-64
2022/10/24 09:34:08;;;;;;;5.95;3.60;;;;;;;;;;4951601;28;20418;-64
2022/10/24 09:36:33;;;;;;;6.35;3.70;;;;;;;;;;4969547;28;20452;-64
2022/10/24 09:39:23;;;;;;;7.93;4.15;;;;;;;;;;4969599;28;20348;-64
2022/10/24 09:41:48;;;;;;;8.68;3.80;;;;;;;;;;4969773;28;20029;-64
2022/10/24 09:44:30;;;;;;;7.57;4.22;;;;;;;;;;4968825;28;20503;-64
2022/10/24 09:46:56;;;;;;;5.88;3.90;;;;;;;;;;4968324;28;20543;-64
2022/10/24 09:49:22;;;;;;;6.45;3.70;;;;;;;;;;4950326;28;20424;-64
2022/10/24 09:52:03;;;;;;;7.63;3.97;;;;;;;;;;4950697;28;20415;-64
2022/10/24 09:54:30;;;;;;;6.63;3.63;;;;;;;;;;4968444;28;20348;-64
2022/10/24 09:56:58;;;;;;;5.30;2.85;;;;;;;;;;4969575;28;20436;-64
2022/10/24 09:59:47;;;;;;;8.43;3.70;;;;;;;;;;4968754;28;20429;-64
2022/10/24 10:02:26;;;;;;;6.30;3.60;;;;;;;;;;4950770;28;20033;-66
2022/10/24 10:05:03;;;;;;;6.38;3.15;;;;;;;;;;4970046;28;20030;-64
2022/10/24 10:07:34;;;;;;;5.43;3.42;;;;;;;;;;4968354;28;20030;-64
2022/10/24 10:10:24;;;;;;;8.35;3.55;;;;;;;;;;4950825;28;20420;-64
2022/10/24 10:13:18;;;;;;;8.65;3.75;;;;;;;;;;4968473;28;20448;-64
2022/10/24 10:15:46;;;;;;;6.45;3.20;;;;;;;;;;4968092;28;20411;-64
2022/10/24 10:18:23;;;;;;;5.63;3.20;;;;;;;;;;4968200;28;20438;-64
2022/10/24 10:21:02;;;;;;;6.95;3.22;;;;;;;;;;4969442;28;20428;-64
2022/10/24 10:23:31;;;;;;;8.00;3.97;;;;;;;;;;4967992;28;20141;-64
2022/10/24 10:26:06;;;;;;;7.78;3.22;;;;;;;;;;4967951;28;20429;-64
2022/10/24 10:28:41;;;;;;;6.65;3.83;;;;;;;;;;4968440;28;20391;-65
2022/10/24 10:31:08;;;;;;;6.43;3.20;;;;;;;;;;4968631;28;20049;-64
2022/10/24 10:34:27;;;;;;;5.70;3.13;;;;;;;;;;4950196;28;20061;-64
2022/10/24 10:37:14;;;;;;;6.13;2.90;;;;;;;;;;4945890;28;20476;-64
2022/10/24 10:39:42;;;;;;;10.63;4.15;;;;;;;;;;4967762;28;20092;-64
2022/10/24 10:42:17;;;;;;;10.38;3.25;;;;;;;;;;4967890;28;20429;-64
2022/10/24 10:45:14;;;;;;;6.57;3.10;;;;;;;;;;4968291;28;20404;-64
2022/10/24 10:48:17;;;;;;;5.85;3.33;;;;;;;;;;4949987;28;20372;-64
2022/10/24 10:51:04;;;;;;;4.22;2.70;;;;;;;;;;4968300;28;20412;-64
2022/10/24 10:53:51;;;;;;;5.43;3.13;;;;;;;;;;4967838;28;20344;-64
2022/10/24 10:56:34;;;;;;;5.63;2.95;;;;;;;;;;4967821;28;20394;-64
2022/10/24 10:59:15;;;;;;;4.82;2.65;;;;;;;;;;4968838;28;20459;-64
2022/10/24 11:01:44;;;;;;;7.32;2.80;;;;;;;;;;4954144;28;20318;-64
2022/10/24 11:04:21;;;;;;;4.25;2.50;;;;;;;;;;4971662;28;20413;-64
2022/10/24 11:07:16;;;;;;;3.92;2.55;;;;;;;;;;4954771;28;20432;-67
2022/10/24 11:09:47;;;;;;;4.43;3.17;;;;;;;;;;4954253;28;20464;-64
2022/10/24 11:12:23;;;;;;;5.53;2.42;;;;;;;;;;4971440;28;20052;-64
2022/10/24 11:14:51;;;;;;;4.10;2.55;;;;;;;;;;4971576;28;20391;-65
2022/10/24 11:17:23;;;;;;;5.78;2.45;;;;;;;;;;4953731;28;20355;-64
2022/10/24 11:19:52;;;;;;;4.70;2.72;;;;;;;;;;4953843;28;20445;-65
2022/10/24 11:22:26;;;;;;;5.07;2.42;;;;;;;;;;4953856;28;20341;-64
2022/10/24 11:25:06;;;;;;;8.50;3.70;;;;;;;;;;4953665;28;20504;-65
2022/10/24 11:27:39;;;;;;;6.20;2.75;;;;;;;;;;4971210;28;20352;-64
2022/10/24 11:30:10;;;;;;;5.53;2.42;;;;;;;;;;4953073;28;20421;-65
2022/10/24 11:32:39;;;;;;;4.90;2.90;;;;;;;;;;4971074;28;20447;-64
2022/10/24 11:35:16;;;;;;;3.92;2.22;;;;;;;;;;4953672;28;20448;-64
2022/10/24 11:37:44;;;;;;;3.53;2.30;;;;;;;;;;4953661;28;20029;-64
2022/10/24 11:40:20;;;;;;;5.43;2.63;;;;;;;;;;4953241;28;20381;-65
2022/10/24 11:43:14;;;;;;;3.55;2.05;;;;;;;;;;4970947;28;20388;-64
2022/10/24 11:46:00;;;;;;;3.58;2.50;;;;;;;;;;4971378;28;20970;-64
2022/10/24 11:49:21;;;;;;;3.83;2.08;;;;;;;;;;4953577;28;20444;-64
2022/10/24 11:51:53;;;;;;;5.65;2.72;;;;;;;;;;4948084;28;20045;-64
2022/10/24 11:54:24;;;;;;;5.28;2.08;;;;;;;;;;4970995;28;20491;-64
2022/10/24 11:56:54;;;;;;;5.63;2.10;;;;;;;;;;4953015;28;20484;-64
2022/10/24 11:59:23;;;;;;;4.00;2.10;;;;;;;;;;4953222;28;20045;-64
2022/10/24 12:01:54;;;;;;;2.67;2.00;;;;;;;;;;4953491;28;20408;-64
2022/10/24 12:04:46;;;;;;;3.50;1.92;;;;;;;;;;4970585;28;20045;-64
2022/10/24 12:07:50;;;;;;;4.78;2.40;;;;;;;;;;4952718;28;20441;-64
2022/10/24 12:10:33;;;;;;;3.72;2.35;;;;;;;;;;4969577;28;20546;-64
2022/10/24 12:13:33;;;;;;;3.58;2.20;;;;;;;;;;4970397;28;20592;-64
2022/10/24 12:16:11;;;;;;;5.53;2.28;;;;;;;;;;4953370;28;20056;-65
2022/10/24 12:18:46;;;;;;;4.95;2.40;;;;;;;;;;4972430;28;20305;-64
2022/10/24 12:21:18;;;;;;;4.50;2.20;;;;;;;;;;4952464;28;20124;-64
2022/10/24 12:23:52;;;;;;;5.28;2.17;;;;;;;;;;4952483;28;20459;-64
2022/10/24 12:26:25;;;;;;;4.47;2.20;;;;;;;;;;4952754;28;20574;-64
2022/10/24 12:28:57;;;;;;;4.78;2.00;;;;;;;;;;4970663;28;20436;-64
2022/10/24 12:31:28;;;;;;;3.17;2.05;;;;;;;;;;4970526;28;20456;-65
2022/10/24 12:34:15;;;;;;;3.88;2.08;;;;;;;;;;4952163;28;20490;-65
2022/10/24 12:36:59;;;;;;;9.07;2.10;;;;;;;;;;4970129;28;20060;-64
2022/10/24 12:39:35;;;;;;;4.40;1.90;;;;;;;;;;4970903;28;20107;-65
2022/10/24 12:42:01;;;;;;;5.32;2.08;;;;;;;;;;4970125;28;20451;-64
2022/10/24 12:44:32;;;;;;;5.03;3.03;;;;;;;;;;4952030;28;20432;-64
2022/10/24 12:46:59;;;;;;;4.55;2.30;;;;;;;;;;4969836;28;20448;-64
2022/10/24 12:49:29;;;;;;;3.35;2.25;;;;;;;;;;4969652;28;20344;-64
2022/10/24 12:51:55;;;;;;;4.28;1.92;;;;;;;;;;4969556;28;20368;-64
2022/10/24 12:54:42;;;;;;;17.00;3.45;;;;;;;;;;4971224;28;20436;-64
2022/10/24 12:57:08;;;;;;;3.13;2.00;;;;;;;;;;4951961;28;20439;-64
2022/10/24 12:59:55;;;;;;;2.50;1.83;;;;;;;;;;4969728;28;20549;-64
2022/10/24 13:02:37;;;;;;;4.95;2.22;;;;;;;;;;4951820;28;20336;-64
2022/10/24 13:05:15;;;;;;;3.33;1.70;;;;;;;;;;4951749;28;20387;-64
2022/10/24 13:07:58;;;;;;;5.47;2.30;;;;;;;;;;4969304;28;20484;-64
2022/10/24 13:10:53;;;;;;;3.55;2.00;;;;;;;;;;4969794;28;20494;-64
2022/10/24 13:13:40;;;;;;;4.13;2.08;;;;;;;;;;4969200;28;20498;-64
2022/10/24 13:16:30;;;;;;;3.60;1.98;;;;;;;;;;4969126;28;20391;-64
2022/10/24 13:19:27;;;;;;;5.65;2.35;;;;;;;;;;4970761;28;20427;-66
2022/10/24 13:21:57;;;;;;;6.28;2.35;;;;;;;;;;4966780;28;20449;-62
2022/10/24 13:24:27;;;;;;;7.97;2.15;;;;;;;;;;4951493;28;20460;-64
2022/10/24 13:26:54;;;;;;;4.50;2.10;;;;;;;;;;4969327;28;20356;-64
2022/10/24 13:29:22;;;;;;;3.88;2.13;;;;;;;;;;4968842;28;20419;-64
2022/10/24 13:32:12;;;;;;;4.85;2.58;;;;;;;;;;4967079;28;20345;-64
2022/10/24 13:34:49;;;;;;;4.82;2.75;;;;;;;;;;4961749;28;20056;-64
2022/10/24 13:37:23;;;;;;;4.70;2.42;;;;;;;;;;4969643;28;20048;-63
2022/10/24 13:39:51;;;;;;;3.33;1.85;;;;;;;;;;4969069;28;20456;-64
2022/10/24 13:42:27;;;;;;;4.07;2.35;;;;;;;;;;4967199;28;20394;-63
2022/10/24 13:45:02;;;;;;;5.20;2.55;;;;;;;;;;4971069;28;20029;-64
2022/10/24 13:47:32;;;;;;;5.72;2.70;;;;;;;;;;4969349;28;20424;-64
2022/10/24 13:50:21;;;;;;;4.13;2.47;;;;;;;;;;4968660;28;20411;-64
2022/10/24 13:52:50;;;;;;;7.95;2.33;;;;;;;;;;4967429;28;20325;-64
2022/10/24 13:55:32;;;;;;;5.43;2.63;;;;;;;;;;4950883;28;20437;-64
2022/10/24 13:57:59;;;;;;;4.35;2.22;;;;;;;;;;4968625;28;20490;-63
2022/10/24 14:00:29;;;;;;;7.28;2.88;;;;;;;;;;4968653;28;20380;-63
2022/10/24 14:02:54;;;;;;;4.88;2.30;;;;;;;;;;4968417;28;20444;-63
2022/10/24 14:05:37;;;;;;;4.95;2.92;;;;;;;;;;4969393;28;20431;-63
2022/10/24 14:08:02;;;;;;;5.22;2.72;;;;;;;;;;4968994;28;20437;-64
2022/10/24 14:10:28;;;;;;;5.80;3.10;;;;;;;;;;4968510;28;20353;-64
2022/10/24 14:12:56;;;;;;;6.90;2.55;;;;;;;;;;4968661;28;20025;-64
2022/10/24 14:15:25;;;;;;;8.50;2.97;;;;;;;;;;4950743;28;20314;-64
2022/10/24 14:17:54;;;;;;;;;;;;;;;;;;4967089;28;20364;-64
2022/10/24 14:20:25;;;;;;;6.72;2.92;;;;;;;;;;4968162;28;20224;-64
2022/10/24 14:22:51;;;;;;;4.15;2.33;;;;;;;;;;4969035;28;20495;-64
2022/10/24 14:25:34;;;;;;;5.07;2.78;;;;;;;;;;4968065;28;20456;-64
2022/10/24 14:28:13;;;;;;;5.10;2.78;;;;;;;;;;4950614;28;20163;-64
2022/10/24 14:30:38;;;;;;;6.30;3.28;;;;;;;;;;4950379;28;20504;-64
2022/10/24 14:33:13;;;;;;;5.30;3.13;;;;;;;;;;4968509;28;20523;-64
2022/10/24 14:35:38;;;;;;;8.05;3.75;;;;;;;;;;4967803;28;20383;-64
2022/10/24 14:38:04;;;;;;;5.88;3.80;;;;;;;;;;4950325;28;20144;-64
2022/10/24 14:40:30;;;;;;;8.45;3.53;;;;;;;;;;4968447;28;20099;-63
2022/10/24 14:42:55;;;;;;;9.48;4.07;;;;;;;;;;4969296;28;20464;-64
2022/10/24 14:45:30;;;;;;;8.27;3.67;;;;;;;;;;4967896;28;20021;-64
2022/10/24 14:47:57;;;;;;;6.25;3.55;;;;;;;;;;4967473;28;20443;-64
2022/10/24 14:50:42;;;;;;;7.13;3.28;;;;;;;;;;4967821;28;20391;-64
2022/10/24 14:53:25;;;;;;;6.57;3.45;;;;;;;;;;4950522;28;20056;-64